createdAt,value
2022-09-18T00:04:43.862Z,86.28
2022-09-18T00:09:47.365Z,86.58
2022-09-18T00:14:50.577Z,86.74
2022-09-18T00:19:54.942Z,86.92
2022-09-18T00:24:58.806Z,87.20
2022-09-18T00:30:01.965Z,87.31
2022-09-18T00:35:08.395Z,87.50
2022-09-18T00:40:12.253Z,87.64
2022-09-18T00:45:15.653Z,87.83
2022-09-18T00:50:27.577Z,87.95
2022-09-18T00:55:36.312Z,87.92
2022-09-18T01:00:40.185Z,88.01
2022-09-18T01:05:46.977Z,87.88
2022-09-18T01:11:15.177Z,87.75
2022-09-18T01:16:51.158Z,87.87
2022-09-18T01:22:21.874Z,88.00
2022-09-18T01:27:58.854Z,88.07
2022-09-18T01:33:32.631Z,87.90
2022-09-18T01:38:50.227Z,87.78
2022-09-18T01:44:04.517Z,88.05
2022-09-18T01:49:18.666Z,88.32
2022-09-18T01:54:27.592Z,87.38
2022-09-18T01:59:39.273Z,87.11
2022-09-18T02:04:47.510Z,87.43
2022-09-18T02:09:50.849Z,87.31
2022-09-18T02:14:57.689Z,86.35
2022-09-18T02:20:32.661Z,86.85
2022-09-18T02:25:50.928Z,86.65
2022-09-18T02:30:54.392Z,86.54
2022-09-18T02:36:03.691Z,86.48
2022-09-18T02:41:33.557Z,85.74
2022-09-18T02:47:00.484Z,86.07
2022-09-18T02:52:07.998Z,86.15
2022-09-18T02:57:17.137Z,85.98
2022-09-18T03:02:23.099Z,85.87
2022-09-18T03:07:27.199Z,85.79
2022-09-18T03:12:32.105Z,85.67
2022-09-18T03:17:35.399Z,85.74
2022-09-18T03:22:39.203Z,85.63
2022-09-18T03:27:46.613Z,85.46
2022-09-18T03:33:02.027Z,85.52
2022-09-18T03:38:06.279Z,85.15
2022-09-18T03:43:11.766Z,85.27
2022-09-18T03:48:16.084Z,85.09
2022-09-18T03:53:20.245Z,85.06
2022-09-18T03:58:31.787Z,85.27
2022-09-18T04:03:37.856Z,85.38
2022-09-18T04:08:59.837Z,85.37
2022-09-18T04:14:10.244Z,85.02
2022-09-18T04:19:13.982Z,85.11
2022-09-18T04:24:17.584Z,85.01
2022-09-18T04:29:22.062Z,85.26
2022-09-18T04:34:26.088Z,85.40
2022-09-18T04:39:29.474Z,85.53
2022-09-18T04:44:36.106Z,85.57
2022-09-18T04:49:39.384Z,85.23
2022-09-18T04:54:44.113Z,85.50
2022-09-18T04:59:47.593Z,85.56
2022-09-18T05:04:50.982Z,85.55
2022-09-18T05:10:10.801Z,86.21
2022-09-18T05:15:15.036Z,85.66
2022-09-18T05:20:22.310Z,85.40
2022-09-18T05:25:29.227Z,85.63
2022-09-18T05:30:34.337Z,85.42
2022-09-18T05:35:41.108Z,86.06
2022-09-18T05:40:45.311Z,86.04
2022-09-18T05:45:48.692Z,86.34
2022-09-18T05:51:13.207Z,86.32
2022-09-18T05:56:17.254Z,85.99
2022-09-18T06:01:23.926Z,85.81
2022-09-18T06:06:40.048Z,85.40
2022-09-18T06:11:43.332Z,85.31
2022-09-18T06:16:51.558Z,85.04
2022-09-18T06:22:00.109Z,84.79
2022-09-18T06:27:05.152Z,84.60
2022-09-18T06:32:27.005Z,84.32
2022-09-18T06:37:40.159Z,83.97
2022-09-18T06:43:02.142Z,83.80
2022-09-18T06:48:29.895Z,83.74
2022-09-18T06:53:44.493Z,83.75
2022-09-18T06:58:55.871Z,83.60
2022-09-18T07:03:59.789Z,83.39
2022-09-18T07:09:14.947Z,83.98
2022-09-18T07:14:37.555Z,84.29
2022-09-18T07:20:01.061Z,84.66
2022-09-18T07:25:17.022Z,85.02
2022-09-18T07:30:23.877Z,85.22
2022-09-18T07:35:33.858Z,85.51
2022-09-18T07:40:44.612Z,85.61
2022-09-18T07:45:59.645Z,85.63
2022-09-18T07:51:10.590Z,85.20
2022-09-18T07:56:26.599Z,85.21
2022-09-18T08:01:35.451Z,85.17
2022-09-18T08:06:48.458Z,85.04
2022-09-18T08:12:06.113Z,85.24
2022-09-18T08:17:46.365Z,85.20
2022-09-18T08:23:16.563Z,84.93
2022-09-18T08:28:45.281Z,84.42
2022-09-18T08:33:56.499Z,83.64
2022-09-18T08:39:05.432Z,83.58
2022-09-18T08:44:32.635Z,83.93
2022-09-18T08:49:50.980Z,84.83
2022-09-18T08:55:14.530Z,85.31
2022-09-18T09:01:01.240Z,85.12
2022-09-18T09:06:35.559Z,84.80
2022-09-18T09:11:41.454Z,85.13
2022-09-18T09:16:52.817Z,85.59
2022-09-18T09:22:29.016Z,85.77
2022-09-18T09:27:41.819Z,86.12
2022-09-18T09:33:04.641Z,86.26
2022-09-18T09:38:42.015Z,86.76
2022-09-18T09:44:09.759Z,86.96
2022-09-18T09:49:25.923Z,86.65
2022-09-18T09:54:37.406Z,85.72
2022-09-18T10:00:06.383Z,84.36
2022-09-18T10:06:05.062Z,84.51
2022-09-18T10:11:12.776Z,85.08
2022-09-18T10:16:23.599Z,85.78
2022-09-18T10:21:36.279Z,85.87
2022-09-18T10:27:01.013Z,85.84
2022-09-18T10:32:12.008Z,85.40
2022-09-18T10:37:35.420Z,85.45
2022-09-18T10:42:46.566Z,85.15
2022-09-18T10:48:27.679Z,85.06
2022-09-18T10:53:34.324Z,84.78
2022-09-18T10:59:37.645Z,84.34
2022-09-18T11:04:50.371Z,83.72
2022-09-18T11:10:20.800Z,83.15
2022-09-18T11:16:07.591Z,81.92
2022-09-18T11:21:14.156Z,80.95
2022-09-18T11:26:32.876Z,81.18
2022-09-18T11:31:46.318Z,81.14
2022-09-18T11:37:40.173Z,80.41
2022-09-18T11:42:52.057Z,80.40
2022-09-18T11:48:25.010Z,80.44
2022-09-18T11:53:44.068Z,78.59
2022-09-18T11:59:05.663Z,77.68
2022-09-18T12:04:29.011Z,77.56
2022-09-18T12:09:41.603Z,76.79
2022-09-18T12:15:11.051Z,75.72
2022-09-18T12:20:33.072Z,76.19
2022-09-18T12:25:56.573Z,74.35
2022-09-18T12:31:55.887Z,74.01
2022-09-18T12:37:45.813Z,73.82
2022-09-18T12:43:03.866Z,73.87
2022-09-18T12:48:40.678Z,73.90
2022-09-18T12:54:11.502Z,74.31
2022-09-18T12:59:39.464Z,73.55
2022-09-18T13:04:50.634Z,73.21
2022-09-18T13:09:59.666Z,73.41
2022-09-18T13:15:13.696Z,74.16
2022-09-18T13:20:20.260Z,73.89
2022-09-18T13:25:28.622Z,69.39
2022-09-18T13:30:32.239Z,67.08
2022-09-18T13:35:39.849Z,68.00
2022-09-18T13:41:04.825Z,68.21
2022-09-18T13:46:10.609Z,69.68
2022-09-18T13:51:31.528Z,70.06
2022-09-18T13:57:10.596Z,70.64
2022-09-18T14:02:27.334Z,71.65
2022-09-18T14:07:37.891Z,71.60
2022-09-18T14:13:22.601Z,68.52
2022-09-18T14:18:48.497Z,67.57
2022-09-18T14:24:26.735Z,67.28
2022-09-18T14:29:36.853Z,65.74
2022-09-18T14:34:42.974Z,65.22
2022-09-18T14:39:47.083Z,65.99
2022-09-18T14:45:11.296Z,66.79
2022-09-18T14:50:46.963Z,67.02
2022-09-18T14:56:01.824Z,67.25
2022-09-18T15:01:15.237Z,67.07
2022-09-18T15:06:27.168Z,66.15
2022-09-18T15:11:47.010Z,66.23
2022-09-18T15:17:00.830Z,66.46
2022-09-18T15:22:05.970Z,66.99
2022-09-18T15:27:14.994Z,66.98
2022-09-18T15:32:23.869Z,66.57
2022-09-18T15:37:34.856Z,67.43
2022-09-18T15:42:41.483Z,68.42
2022-09-18T15:47:45.312Z,69.14
2022-09-18T15:53:02.010Z,70.22
2022-09-18T15:58:25.238Z,70.10
2022-09-18T16:03:30.623Z,71.11
2022-09-18T16:09:02.681Z,71.64
2022-09-18T16:14:40.675Z,72.71
2022-09-18T16:19:44.754Z,74.10
2022-09-18T16:24:48.610Z,73.61
2022-09-18T16:29:52.182Z,74.16
2022-09-18T16:34:55.688Z,74.27
2022-09-18T16:40:01.541Z,75.76
2022-09-18T16:45:06.459Z,76.49
2022-09-18T16:50:10.094Z,76.80
2022-09-18T16:55:16.498Z,78.85
2022-09-18T17:00:26.404Z,79.99
2022-09-18T17:05:30.418Z,79.60
2022-09-18T17:10:35.892Z,80.46
2022-09-18T17:15:39.279Z,81.69
2022-09-18T17:20:42.659Z,79.62
2022-09-18T17:25:49.662Z,79.86
2022-09-18T17:30:53.775Z,82.79
2022-09-18T17:35:57.214Z,80.71
2022-09-18T17:41:03.388Z,80.51
2022-09-18T17:46:13.296Z,80.32
2022-09-18T17:51:20.586Z,80.46
2022-09-18T17:56:30.315Z,82.37
2022-09-18T18:01:46.221Z,83.58
2022-09-18T18:06:52.802Z,84.54
2022-09-18T18:11:56.834Z,84.83
2022-09-18T18:17:11.139Z,86.10
2022-09-18T18:22:24.078Z,87.21
2022-09-18T18:27:29.234Z,87.21
2022-09-18T18:32:38.392Z,87.61
2022-09-18T18:37:44.988Z,87.45
2022-09-18T18:42:57.077Z,87.64
2022-09-18T18:48:09.833Z,87.74
2022-09-18T18:53:23.413Z,87.54
2022-09-18T18:58:36.868Z,87.64
2022-09-18T19:04:20.844Z,87.75
2022-09-18T19:09:42.712Z,87.52
2022-09-18T19:14:57.879Z,86.32
2022-09-18T19:20:13.673Z,86.35
2022-09-18T19:25:46.470Z,86.65
2022-09-18T19:31:29.065Z,86.58
2022-09-18T19:36:40.410Z,85.96
2022-09-18T19:41:51.822Z,86.08
2022-09-18T19:46:56.353Z,86.25
2022-09-18T19:52:31.348Z,85.92
2022-09-18T19:57:35.759Z,86.21
2022-09-18T20:02:39.276Z,86.20
2022-09-18T20:07:45.070Z,86.22
2022-09-18T20:12:49.735Z,86.59
2022-09-18T20:17:56.911Z,86.75
2022-09-18T20:23:02.339Z,86.80
2022-09-18T20:28:06.111Z,86.33
2022-09-18T20:33:09.457Z,86.73
2022-09-18T20:38:12.999Z,86.88
2022-09-18T20:43:21.772Z,87.13
2022-09-18T20:48:26.979Z,87.70
2022-09-18T20:53:43.126Z,88.04
2022-09-18T20:58:51.868Z,87.89
2022-09-18T21:04:01.131Z,87.73
2022-09-18T21:09:31.073Z,87.99
2022-09-18T21:14:34.325Z,88.22
2022-09-18T21:19:39.101Z,88.25
2022-09-18T21:24:45.017Z,88.32
2022-09-18T21:30:00.464Z,88.46
2022-09-18T21:35:28.471Z,88.55
2022-09-18T21:40:36.236Z,88.70
2022-09-18T21:45:43.290Z,88.80
2022-09-18T21:50:52.423Z,88.88
2022-09-18T21:56:15.595Z,89.06
2022-09-18T22:01:21.484Z,89.19
2022-09-18T22:06:34.825Z,89.16
2022-09-18T22:11:39.011Z,89.30
2022-09-18T22:16:47.370Z,89.09
2022-09-18T22:21:56.247Z,89.22
2022-09-18T22:27:11.086Z,89.52
2022-09-18T22:32:15.808Z,89.48
2022-09-18T22:37:20.592Z,89.71
2022-09-18T22:42:26.339Z,89.81
2022-09-18T22:47:30.845Z,88.62
2022-09-18T22:52:35.299Z,87.31
2022-09-18T22:57:39.018Z,87.82
2022-09-18T23:02:43.161Z,87.10
2022-09-18T23:07:47.218Z,86.59
2022-09-18T23:12:51.195Z,86.73
2022-09-18T23:17:55.761Z,87.07
2022-09-18T23:22:59.756Z,86.62
2022-09-18T23:28:03.053Z,87.08
2022-09-18T23:33:06.528Z,87.18
2022-09-18T23:38:09.774Z,86.99
2022-09-18T23:43:12.991Z,87.05
2022-09-18T23:48:17.104Z,86.89
2022-09-18T23:53:22.958Z,86.82
2022-09-18T23:58:26.119Z,87.43
